sensor_id;sensor_type;location;lat;lon;timestamp;noise_LAeq;noise_LA_min;noise_LA_max;noise_LA01;noise_LA95
57439;Laerm;43282;47.188;8.896;2023-06-14T00:02:06;43.61;37.70;56.38;;
57439;Laerm;43282;47.188;8.896;2023-06-14T00:04:34;45.74;37.12;63.64;;
57439;Laerm;43282;47.188;8.896;2023-06-14T00:07:00;43.16;37.88;53.37;;
57439;Laerm;43282;47.188;8.896;2023-06-14T00:09:25;45.71;38.81;59.26;;
57439;Laerm;43282;47.188;8.896;2023-06-14T00:11:50;41.87;35.94;53.59;;
57439;Laerm;43282;47.188;8.896;2023-06-14T00:14:16;44.06;36.69;58.02;;
57439;Laerm;43282;47.188;8.896;2023-06-14T00:16:41;42.46;37.70;50.92;;
57439;Laerm;43282;47.188;8.896;2023-06-14T00:19:08;40.69;36.20;54.33;;
57439;Laerm;43282;47.188;8.896;2023-06-14T00:21:33;44.77;39.08;55.83;;
57439;Laerm;43282;47.188;8.896;2023-06-14T00:24:00;43.98;36.20;58.07;;
57439;Laerm;43282;47.188;8.896;2023-06-14T00:26:26;40.61;36.91;46.05;;
57439;Laerm;43282;47.188;8.896;2023-06-14T00:28:51;43.21;35.94;55.76;;
57439;Laerm;43282;47.188;8.896;2023-06-14T00:31:17;45.19;36.20;61.32;;
57439;Laerm;43282;47.188;8.896;2023-06-14T00:33:42;41.16;38.21;45.30;;
57439;Laerm;43282;47.188;8.896;2023-06-14T00:36:07;43.31;37.52;50.61;;
57439;Laerm;43282;47.188;8.896;2023-06-14T00:38:32;46.75;35.04;62.22;;
57439;Laerm;43282;47.188;8.896;2023-06-14T00:40:58;41.48;35.04;59.27;;
57439;Laerm;43282;47.188;8.896;2023-06-14T00:43:23;43.84;38.21;59.71;;
57439;Laerm;43282;47.188;8.896;2023-06-14T00:45:48;40.06;35.04;46.33;;
57439;Laerm;43282;47.188;8.896;2023-06-14T00:48:14;39.80;34.31;52.97;;
57439;Laerm;43282;47.188;8.896;2023-06-14T00:50:40;40.51;34.69;44.35;;
57439;Laerm;43282;47.188;8.896;2023-06-14T00:53:06;41.87;37.32;47.46;;
57439;Laerm;43282;47.188;8.896;2023-06-14T00:55:32;39.83;34.69;52.50;;
57439;Laerm;43282;47.188;8.896;2023-06-14T00:57:57;41.35;36.20;51.56;;
57439;Laerm;43282;47.188;8.896;2023-06-14T01:00:23;41.38;37.32;46.10;;
57439;Laerm;43282;47.188;8.896;2023-06-14T01:02:48;42.39;36.91;55.86;;
57439;Laerm;43282;47.188;8.896;2023-06-14T01:05:14;42.25;36.20;54.81;;
57439;Laerm;43282;47.188;8.896;2023-06-14T01:12:58;39.74;35.94;42.53;;
57439;Laerm;43282;47.188;8.896;2023-06-14T01:15:28;43.31;35.04;59.98;;
57439;Laerm;43282;47.188;8.896;2023-06-14T01:17:55;40.78;37.32;43.72;;
57439;Laerm;43282;47.188;8.896;2023-06-14T01:20:22;40.47;36.20;46.03;;
57439;Laerm;43282;47.188;8.896;2023-06-14T01:22:53;41.40;35.66;49.89;;
57439;Laerm;43282;47.188;8.896;2023-06-14T01:25:22;44.81;35.94;62.70;;
57439;Laerm;43282;47.188;8.896;2023-06-14T01:28:21;41.22;38.05;45.57;;
57439;Laerm;43282;47.188;8.896;2023-06-14T01:30:40;39.59;34.31;47.02;;
57439;Laerm;43282;47.188;8.896;2023-06-14T01:33:10;39.53;35.04;48.36;;
57439;Laerm;43282;47.188;8.896;2023-06-14T01:35:37;46.22;37.88;62.79;;
57439;Laerm;43282;47.188;8.896;2023-06-14T01:38:02;43.76;36.91;59.97;;
57439;Laerm;43282;47.188;8.896;2023-06-14T01:40:28;39.70;35.04;43.09;;
57439;Laerm;43282;47.188;8.896;2023-06-14T01:42:55;40.83;37.12;45.97;;
57439;Laerm;43282;47.188;8.896;2023-06-14T01:45:21;54.20;38.37;68.63;;
57439;Laerm;43282;47.188;8.896;2023-06-14T01:47:46;48.54;36.69;68.06;;
57439;Laerm;43282;47.188;8.896;2023-06-14T01:50:12;43.34;35.66;58.74;;
57439;Laerm;43282;47.188;8.896;2023-06-14T01:52:39;41.37;37.32;50.38;;
57439;Laerm;43282;47.188;8.896;2023-06-14T01:55:05;41.41;35.94;46.52;;
57439;Laerm;43282;47.188;8.896;2023-06-14T01:57:30;39.92;33.90;46.05;;
57439;Laerm;43282;47.188;8.896;2023-06-14T01:59:55;39.20;34.69;43.86;;
57439;Laerm;43282;47.188;8.896;2023-06-14T02:02:21;40.87;36.91;52.65;;
57439;Laerm;43282;47.188;8.896;2023-06-14T02:04:46;40.82;37.32;43.24;;
57439;Laerm;43282;47.188;8.896;2023-06-14T02:07:12;39.85;35.04;43.04;;
57439;Laerm;43282;47.188;8.896;2023-06-14T02:09:38;42.15;35.36;57.92;;
57439;Laerm;43282;47.188;8.896;2023-06-14T02:12:03;45.13;37.12;61.95;;
57439;Laerm;43282;47.188;8.896;2023-06-14T02:14:28;43.43;36.69;58.60;;
57439;Laerm;43282;47.188;8.896;2023-06-14T02:16:54;51.03;38.52;69.78;;
57439;Laerm;43282;47.188;8.896;2023-06-14T02:19:19;44.73;40.53;53.32;;
57439;Laerm;43282;47.188;8.896;2023-06-14T02:21:45;52.09;39.34;76.00;;
57439;Laerm;43282;47.188;8.896;2023-06-14T02:24:11;61.53;40.43;75.66;;
57439;Laerm;43282;47.188;8.896;2023-06-14T02:26:36;52.94;39.08;69.34;;
57439;Laerm;43282;47.188;8.896;2023-06-14T02:29:06;42.18;38.05;50.93;;
57439;Laerm;43282;47.188;8.896;2023-06-14T02:31:33;42.53;37.70;48.63;;
57439;Laerm;43282;47.188;8.896;2023-06-14T02:33:59;45.34;38.99;58.75;;
57439;Laerm;43282;47.188;8.896;2023-06-14T02:36:24;44.12;38.52;56.10;;
57439;Laerm;43282;47.188;8.896;2023-06-14T02:38:50;47.81;38.52;61.62;;
57439;Laerm;43282;47.188;8.896;2023-06-14T02:41:15;41.89;37.52;51.27;;
57439;Laerm;43282;47.188;8.896;2023-06-14T02:43:40;48.04;38.05;60.03;;
57439;Laerm;43282;47.188;8.896;2023-06-14T02:46:05;43.81;38.21;58.08;;
57439;Laerm;43282;47.188;8.896;2023-06-14T02:48:32;53.01;38.37;67.30;;
57439;Laerm;43282;47.188;8.896;2023-06-14T02:50:57;48.99;40.43;60.61;;
57439;Laerm;43282;47.188;8.896;2023-06-14T02:53:22;46.95;39.46;59.49;;
57439;Laerm;43282;47.188;8.896;2023-06-14T02:55:47;41.88;38.05;52.22;;
57439;Laerm;43282;47.188;8.896;2023-06-14T02:58:13;52.00;39.08;71.89;;
57439;Laerm;43282;47.188;8.896;2023-06-14T03:00:38;48.78;40.23;62.74;;
57439;Laerm;43282;47.188;8.896;2023-06-14T03:03:06;49.69;40.62;62.30;;
57439;Laerm;43282;47.188;8.896;2023-06-14T03:05:37;49.91;40.53;60.76;;
57439;Laerm;43282;47.188;8.896;2023-06-14T03:08:06;50.06;39.92;59.91;;
57439;Laerm;43282;47.188;8.896;2023-06-14T03:10:32;51.69;42.16;64.05;;
57439;Laerm;43282;47.188;8.896;2023-06-14T03:12:57;53.39;42.47;65.98;;
57439;Laerm;43282;47.188;8.896;2023-06-14T03:15:22;52.21;41.68;65.15;;
57439;Laerm;43282;47.188;8.896;2023-06-14T03:17:50;54.27;41.38;69.77;;
57439;Laerm;43282;47.188;8.896;2023-06-14T03:20:16;50.93;40.13;65.20;;
57439;Laerm;43282;47.188;8.896;2023-06-14T03:22:41;52.17;41.96;62.59;;
57439;Laerm;43282;47.188;8.896;2023-06-14T03:25:06;49.00;40.62;60.00;;
57439;Laerm;43282;47.188;8.896;2023-06-14T03:27:32;49.49;41.75;60.96;;
57439;Laerm;43282;47.188;8.896;2023-06-14T03:29:57;52.74;41.46;70.78;;
57439;Laerm;43282;47.188;8.896;2023-06-14T03:32:22;64.80;41.61;83.64;;
57439;Laerm;43282;47.188;8.896;2023-06-14T03:34:48;50.38;40.62;61.95;;
57439;Laerm;43282;47.188;8.896;2023-06-14T03:37:13;53.15;40.89;70.85;;
57439;Laerm;43282;47.188;8.896;2023-06-14T03:39:39;51.68;41.22;71.31;;
57439;Laerm;43282;47.188;8.896;2023-06-14T03:42:12;52.58;42.35;64.37;;
57439;Laerm;43282;47.188;8.896;2023-06-14T03:44:37;52.26;43.09;63.24;;
57439;Laerm;43282;47.188;8.896;2023-06-14T03:47:06;51.45;43.29;63.73;;
57439;Laerm;43282;47.188;8.896;2023-06-14T03:49:31;58.14;44.11;71.65;;
57439;Laerm;43282;47.188;8.896;2023-06-14T03:51:57;54.19;44.52;66.57;;
57439;Laerm;43282;47.188;8.896;2023-06-14T03:54:23;53.28;45.51;63.19;;
57439;Laerm;43282;47.188;8.896;2023-06-14T03:56:48;54.39;44.03;65.14;;
57439;Laerm;43282;47.188;8.896;2023-06-14T03:59:13;62.59;44.62;77.76;;
57439;Laerm;43282;47.188;8.896;2023-06-14T04:01:39;55.28;44.27;66.33;;
57439;Laerm;43282;47.188;8.896;2023-06-14T04:04:11;60.14;46.91;86.80;;
57439;Laerm;43282;47.188;8.896;2023-06-14T04:06:36;55.60;48.42;65.43;;
57439;Laerm;43282;47.188;8.896;2023-06-14T04:09:02;55.75;45.36;66.91;;
57439;Laerm;43282;47.188;8.896;2023-06-14T04:11:27;54.97;45.30;65.98;;
57439;Laerm;43282;47.188;8.896;2023-06-14T04:13:53;55.28;44.47;68.87;;
57439;Laerm;43282;47.188;8.896;2023-06-14T04:16:19;54.40;44.03;66.75;;
57439;Laerm;43282;47.188;8.896;2023-06-14T04:18:44;53.06;44.27;65.90;;
57439;Laerm;43282;47.188;8.896;2023-06-14T04:21:11;55.70;44.90;68.96;;
57439;Laerm;43282;47.188;8.896;2023-06-14T04:23:37;55.17;45.97;67.64;;
57439;Laerm;43282;47.188;8.896;2023-06-14T04:26:03;54.14;45.07;75.16;;
57439;Laerm;43282;47.188;8.896;2023-06-14T04:28:28;61.07;45.91;73.15;;
57439;Laerm;43282;47.188;8.896;2023-06-14T04:30:53;55.31;48.51;70.90;;
57439;Laerm;43282;47.188;8.896;2023-06-14T04:33:19;54.91;47.14;64.88;;
57439;Laerm;43282;47.188;8.896;2023-06-14T04:35:44;55.00;46.82;65.78;;
57439;Laerm;43282;47.188;8.896;2023-06-14T04:38:12;55.64;46.71;72.17;;
57439;Laerm;43282;47.188;8.896;2023-06-14T04:40:37;58.51;45.89;68.82;;
57439;Laerm;43282;47.188;8.896;2023-06-14T04:43:12;57.87;43.94;77.93;;
57439;Laerm;43282;47.188;8.896;2023-06-14T04:45:38;54.06;45.30;63.51;;
57439;Laerm;43282;47.188;8.896;2023-06-14T04:48:04;57.01;44.62;70.26;;
57439;Laerm;43282;47.188;8.896;2023-06-14T04:50:32;55.20;44.76;69.24;;
57439;Laerm;43282;47.188;8.896;2023-06-14T04:52:58;53.70;45.01;69.52;;
57439;Laerm;43282;47.188;8.896;2023-06-14T04:55:24;60.34;46.50;71.75;;
57439;Laerm;43282;47.188;8.896;2023-06-14T04:57:51;56.11;44.58;68.98;;
57439;Laerm;43282;47.188;8.896;2023-06-14T05:00:18;56.85;45.73;69.29;;
57439;Laerm;43282;47.188;8.896;2023-06-14T05:02:43;54.48;45.30;72.15;;
57439;Laerm;43282;47.188;8.896;2023-06-14T05:05:09;57.22;47.12;66.79;;
57439;Laerm;43282;47.188;8.896;2023-06-14T05:07:35;56.31;46.10;67.00;;
57439;Laerm;43282;47.188;8.896;2023-06-14T05:10:00;53.71;44.87;62.71;;
57439;Laerm;43282;47.188;8.896;2023-06-14T05:12:25;54.76;43.14;69.31;;
57439;Laerm;43282;47.188;8.896;2023-06-14T05:14:51;55.13;43.44;66.37;;
57439;Laerm;43282;47.188;8.896;2023-06-14T05:17:16;54.76;43.04;72.71;;
57439;Laerm;43282;47.188;8.896;2023-06-14T05:19:42;56.02;42.82;72.74;;
57439;Laerm;43282;47.188;8.896;2023-06-14T05:22:07;54.71;42.53;70.37;;
57439;Laerm;43282;47.188;8.896;2023-06-14T05:24:33;54.59;42.93;68.72;;
57439;Laerm;43282;47.188;8.896;2023-06-14T05:26:58;58.96;43.09;85.47;;
57439;Laerm;43282;47.188;8.896;2023-06-14T05:29:24;55.47;43.77;70.28;;
57439;Laerm;43282;47.188;8.896;2023-06-14T05:31:49;53.51;43.29;63.06;;
57439;Laerm;43282;47.188;8.896;2023-06-14T05:34:15;59.66;42.76;74.66;;
57439;Laerm;43282;47.188;8.896;2023-06-14T05:36:40;56.15;42.65;68.85;;
57439;Laerm;43282;47.188;8.896;2023-06-14T05:39:05;56.06;43.09;71.18;;
57439;Laerm;43282;47.188;8.896;2023-06-14T05:41:31;55.03;44.65;67.81;;
57439;Laerm;43282;47.188;8.896;2023-06-14T05:43:56;55.62;43.77;69.14;;
57439;Laerm;43282;47.188;8.896;2023-06-14T05:46:22;56.91;45.20;76.19;;
57439;Laerm;43282;47.188;8.896;2023-06-14T05:48:50;56.31;43.54;69.87;;
57439;Laerm;43282;47.188;8.896;2023-06-14T05:51:16;54.86;43.39;69.67;;
57439;Laerm;43282;47.188;8.896;2023-06-14T05:53:44;53.85;42.90;72.57;;
57439;Laerm;43282;47.188;8.896;2023-06-14T05:56:09;57.54;45.45;73.89;;
57439;Laerm;43282;47.188;8.896;2023-06-14T05:58:35;55.86;45.72;71.00;;
57439;Laerm;43282;47.188;8.896;2023-06-14T06:01:00;55.06;45.11;68.56;;
57439;Laerm;43282;47.188;8.896;2023-06-14T06:03:26;54.77;41.75;68.19;;
57439;Laerm;43282;47.188;8.896;2023-06-14T06:05:54;52.28;42.35;65.04;;
57439;Laerm;43282;47.188;8.896;2023-06-14T06:08:19;54.13;43.04;67.43;;
57439;Laerm;43282;47.188;8.896;2023-06-14T06:10:45;53.22;44.03;71.02;;
57439;Laerm;43282;47.188;8.896;2023-06-14T06:13:11;54.58;44.35;70.13;;
57439;Laerm;43282;47.188;8.896;2023-06-14T06:15:36;56.98;44.76;70.69;;
57439;Laerm;43282;47.188;8.896;2023-06-14T06:18:01;53.03;44.47;67.77;;
57439;Laerm;43282;47.188;8.896;2023-06-14T06:20:26;54.92;44.62;69.74;;
57439;Laerm;43282;47.188;8.896;2023-06-14T06:22:53;59.79;44.62;75.06;;
57439;Laerm;43282;47.188;8.896;2023-06-14T06:25:19;53.79;43.86;66.70;;
57439;Laerm;43282;47.188;8.896;2023-06-14T06:27:44;55.82;44.58;74.41;;
57439;Laerm;43282;47.188;8.896;2023-06-14T06:30:10;53.82;44.39;67.73;;
57439;Laerm;43282;47.188;8.896;2023-06-14T06:32:35;58.10;44.62;70.84;;
57439;Laerm;43282;47.188;8.896;2023-06-14T06:35:00;58.08;43.19;71.54;;
57439;Laerm;43282;47.188;8.896;2023-06-14T06:37:26;54.75;43.34;66.96;;
57439;Laerm;43282;47.188;8.896;2023-06-14T06:39:51;55.50;44.27;71.12;;
57439;Laerm;43282;47.188;8.896;2023-06-14T06:42:16;53.56;43.90;62.58;;
57439;Laerm;43282;47.188;8.896;2023-06-14T06:44:42;51.81;43.24;62.64;;
57439;Laerm;43282;47.188;8.896;2023-06-14T06:47:07;56.25;43.90;72.34;;
57439;Laerm;43282;47.188;8.896;2023-06-14T06:49:32;55.17;42.53;79.36;;
57439;Laerm;43282;47.188;8.896;2023-06-14T06:52:01;57.58;42.76;72.55;;
57439;Laerm;43282;47.188;8.896;2023-06-14T06:54:27;54.64;43.24;68.47;;
57439;Laerm;43282;47.188;8.896;2023-06-14T06:56:52;55.02;42.88;68.23;;
57439;Laerm;43282;47.188;8.896;2023-06-14T06:59:17;52.52;42.71;63.87;;
57439;Laerm;43282;47.188;8.896;2023-06-14T07:01:43;52.04;40.71;65.51;;
57439;Laerm;43282;47.188;8.896;2023-06-14T07:04:08;59.65;42.98;76.35;;
57439;Laerm;43282;47.188;8.896;2023-06-14T07:06:33;55.14;43.63;67.49;;
57439;Laerm;43282;47.188;8.896;2023-06-14T07:08:59;51.67;41.96;62.25;;
57439;Laerm;43282;47.188;8.896;2023-06-14T07:11:26;52.11;42.47;63.57;;
57439;Laerm;43282;47.188;8.896;2023-06-14T07:13:51;53.98;43.60;65.77;;
57439;Laerm;43282;47.188;8.896;2023-06-14T07:16:17;52.46;43.49;65.61;;
57439;Laerm;43282;47.188;8.896;2023-06-14T07:18:42;55.88;43.39;67.69;;
57439;Laerm;43282;47.188;8.896;2023-06-14T07:21:08;54.07;43.63;66.20;;
57439;Laerm;43282;47.188;8.896;2023-06-14T07:23:33;62.95;44.62;80.67;;
57439;Laerm;43282;47.188;8.896;2023-06-14T07:25:59;53.58;43.39;68.22;;
57439;Laerm;43282;47.188;8.896;2023-06-14T07:28:24;54.98;45.23;68.37;;
57439;Laerm;43282;47.188;8.896;2023-06-14T07:30:49;59.65;43.19;80.73;;
57439;Laerm;43282;47.188;8.896;2023-06-14T07:33:15;58.29;44.19;74.75;;
57439;Laerm;43282;47.188;8.896;2023-06-14T07:35:40;53.79;44.15;71.38;;
57439;Laerm;43282;47.188;8.896;2023-06-14T07:38:06;58.04;44.80;75.18;;
57439;Laerm;43282;47.188;8.896;2023-06-14T07:40:31;54.76;43.77;67.81;;
57439;Laerm;43282;47.188;8.896;2023-06-14T07:42:56;56.90;44.54;72.33;;
57439;Laerm;43282;47.188;8.896;2023-06-14T07:45:22;56.37;45.83;69.70;;
57439;Laerm;43282;47.188;8.896;2023-06-14T07:47:47;56.04;44.35;68.92;;
57439;Laerm;43282;47.188;8.896;2023-06-14T07:50:12;56.49;43.90;70.04;;
57439;Laerm;43282;47.188;8.896;2023-06-14T07:52:38;58.18;44.07;73.75;;
57439;Laerm;43282;47.188;8.896;2023-06-14T07:55:04;59.07;46.25;75.26;;
57439;Laerm;43282;47.188;8.896;2023-06-14T07:57:30;54.24;42.82;67.39;;
57439;Laerm;43282;47.188;8.896;2023-06-14T07:59:55;55.61;44.03;68.75;;
57439;Laerm;43282;47.188;8.896;2023-06-14T08:02:21;60.33;44.39;75.57;;
57439;Laerm;43282;47.188;8.896;2023-06-14T08:04:46;56.61;43.29;70.80;;
57439;Laerm;43282;47.188;8.896;2023-06-14T08:07:13;58.53;44.11;72.38;;
57439;Laerm;43282;47.188;8.896;2023-06-14T08:09:39;54.56;43.39;66.61;;
57439;Laerm;43282;47.188;8.896;2023-06-14T08:12:05;56.05;42.64;73.90;;
57439;Laerm;43282;47.188;8.896;2023-06-14T08:14:32;56.21;43.72;75.49;;
57439;Laerm;43282;47.188;8.896;2023-06-14T08:16:58;53.81;43.14;64.06;;
57439;Laerm;43282;47.188;8.896;2023-06-14T08:19:23;54.06;42.76;64.08;;
57439;Laerm;43282;47.188;8.896;2023-06-14T08:21:49;55.22;43.58;65.25;;
57439;Laerm;43282;47.188;8.896;2023-06-14T08:24:15;54.92;43.29;68.76;;
57439;Laerm;43282;47.188;8.896;2023-06-14T08:26:41;53.81;43.24;64.62;;
57439;Laerm;43282;47.188;8.896;2023-06-14T08:29:06;59.64;45.17;72.75;;
57439;Laerm;43282;47.188;8.896;2023-06-14T08:31:32;54.40;43.77;63.71;;
57439;Laerm;43282;47.188;8.896;2023-06-14T08:33:58;52.46;42.93;63.40;;
57439;Laerm;43282;47.188;8.896;2023-06-14T08:36:23;55.75;42.76;70.96;;
57439;Laerm;43282;47.188;8.896;2023-06-14T08:38:48;59.26;43.49;75.73;;
57439;Laerm;43282;47.188;8.896;2023-06-14T08:41:14;55.21;42.47;69.33;;
57439;Laerm;43282;47.188;8.896;2023-06-14T08:43:44;55.06;42.88;67.16;;
57439;Laerm;43282;47.188;8.896;2023-06-14T08:46:10;54.83;43.04;66.88;;
57439;Laerm;43282;47.188;8.896;2023-06-14T08:48:37;55.33;43.34;68.33;;
57439;Laerm;43282;47.188;8.896;2023-06-14T08:51:03;56.90;43.94;71.71;;
57439;Laerm;43282;47.188;8.896;2023-06-14T08:53:32;55.80;42.65;69.06;;
57439;Laerm;43282;47.188;8.896;2023-06-14T08:55:59;52.81;42.53;65.48;;
57439;Laerm;43282;47.188;8.896;2023-06-14T08:58:30;56.19;43.09;71.08;;
57439;Laerm;43282;47.188;8.896;2023-06-14T09:00:56;56.35;42.59;71.91;;
57439;Laerm;43282;47.188;8.896;2023-06-14T09:03:22;57.16;43.58;71.12;;
57439;Laerm;43282;47.188;8.896;2023-06-14T09:05:48;54.51;43.14;66.97;;
57439;Laerm;43282;47.188;8.896;2023-06-14T09:08:13;53.97;42.22;65.71;;
57439;Laerm;43282;47.188;8.896;2023-06-14T09:10:39;52.93;42.59;63.37;;
57439;Laerm;43282;47.188;8.896;2023-06-14T09:13:06;55.02;42.93;69.04;;
57439;Laerm;43282;47.188;8.896;2023-06-14T09:15:31;57.68;43.44;76.73;;
57439;Laerm;43282;47.188;8.896;2023-06-14T09:17:57;53.73;43.54;66.84;;
57439;Laerm;43282;47.188;8.896;2023-06-14T09:20:23;58.56;43.94;74.71;;
57439;Laerm;43282;47.188;8.896;2023-06-14T09:22:49;58.85;44.03;74.72;;
57439;Laerm;43282;47.188;8.896;2023-06-14T09:25:14;58.32;43.99;70.85;;
57439;Laerm;43282;47.188;8.896;2023-06-14T09:27:40;63.24;44.73;80.60;;
57439;Laerm;43282;47.188;8.896;2023-06-14T09:30:08;54.24;46.69;74.29;;
57439;Laerm;43282;47.188;8.896;2023-06-14T09:32:37;62.96;47.86;76.67;;
57439;Laerm;43282;47.188;8.896;2023-06-14T09:35:05;62.63;43.19;84.93;;
57439;Laerm;43282;47.188;8.896;2023-06-14T09:37:31;60.22;43.04;81.69;;
57439;Laerm;43282;47.188;8.896;2023-06-14T09:39:57;63.75;42.88;90.04;;
57439;Laerm;43282;47.188;8.896;2023-06-14T09:42:23;55.87;42.76;70.42;;
57439;Laerm;43282;47.188;8.896;2023-06-14T09:44:51;63.81;42.88;87.94;;
57439;Laerm;43282;47.188;8.896;2023-06-14T09:47:16;54.96;42.16;70.59;;
57439;Laerm;43282;47.188;8.896;2023-06-14T09:49:42;57.69;42.88;77.84;;
57439;Laerm;43282;47.188;8.896;2023-06-14T09:52:10;61.28;42.09;76.00;;
57439;Laerm;43282;47.188;8.896;2023-06-14T09:54:39;55.43;41.96;79.48;;
57439;Laerm;43282;47.188;8.896;2023-06-14T09:57:07;56.28;42.88;71.56;;
57439;Laerm;43282;47.188;8.896;2023-06-14T09:59:33;56.32;43.54;70.12;;
57439;Laerm;43282;47.188;8.896;2023-06-14T10:01:59;54.76;42.76;69.07;;
57439;Laerm;43282;47.188;8.896;2023-06-14T10:04:25;56.03;43.09;68.17;;
57439;Laerm;43282;47.188;8.896;2023-06-14T10:06:52;55.76;44.07;66.80;;
57439;Laerm;43282;47.188;8.896;2023-06-14T10:09:18;54.15;43.72;65.83;;
57439;Laerm;43282;47.188;8.896;2023-06-14T10:11:44;56.01;44.07;65.65;;
57439;Laerm;43282;47.188;8.896;2023-06-14T10:14:10;58.71;42.82;80.68;;
57439;Laerm;43282;47.188;8.896;2023-06-14T10:19:18;60.39;43.54;79.58;;
57439;Laerm;43282;47.188;8.896;2023-06-14T10:24:23;54.48;42.19;68.65;;
57439;Laerm;43282;47.188;8.896;2023-06-14T10:26:52;55.24;42.03;69.88;;
57439;Laerm;43282;47.188;8.896;2023-06-14T10:29:18;52.62;42.98;62.90;;
57439;Laerm;43282;47.188;8.896;2023-06-14T10:31:47;54.07;42.53;66.26;;
57439;Laerm;43282;47.188;8.896;2023-06-14T10:34:21;52.92;42.35;68.59;;
57439;Laerm;43282;47.188;8.896;2023-06-14T10:36:50;52.82;42.35;65.28;;
57439;Laerm;43282;47.188;8.896;2023-06-14T10:39:25;53.62;42.59;67.72;;
57439;Laerm;43282;47.188;8.896;2023-06-14T10:41:53;53.22;41.89;65.07;;
57439;Laerm;43282;47.188;8.896;2023-06-14T10:46:48;52.84;43.04;67.70;;
57439;Laerm;43282;47.188;8.896;2023-06-14T10:49:17;56.85;43.24;70.49;;
57439;Laerm;43282;47.188;8.896;2023-06-14T10:51:44;55.01;43.99;68.01;;
57439;Laerm;43282;47.188;8.896;2023-06-14T10:54:20;56.33;43.86;70.26;;
57439;Laerm;43282;47.188;8.896;2023-06-14T10:56:48;58.18;43.58;71.33;;
57439;Laerm;43282;47.188;8.896;2023-06-14T10:59:14;57.00;43.72;71.70;;
57439;Laerm;43282;47.188;8.896;2023-06-14T11:04:17;55.96;44.54;71.41;;
57439;Laerm;43282;47.188;8.896;2023-06-14T11:06:49;58.73;45.86;74.84;;
57439;Laerm;43282;47.188;8.896;2023-06-14T11:11:57;57.82;45.33;72.31;;
57439;Laerm;43282;47.188;8.896;2023-06-14T11:14:23;57.80;44.23;72.76;;
57439;Laerm;43282;47.188;8.896;2023-06-14T11:16:49;61.57;43.63;80.67;;
57439;Laerm;43282;47.188;8.896;2023-06-14T11:19:14;54.64;45.07;68.25;;
57439;Laerm;43282;47.188;8.896;2023-06-14T11:21:42;54.82;43.29;67.48;;
57439;Laerm;43282;47.188;8.896;2023-06-14T11:24:10;57.53;43.14;78.59;;
57439;Laerm;43282;47.188;8.896;2023-06-14T11:26:37;54.88;43.90;65.47;;
57439;Laerm;43282;47.188;8.896;2023-06-14T11:29:02;57.84;44.43;69.36;;
57439;Laerm;43282;47.188;8.896;2023-06-14T11:31:28;56.67;44.15;73.28;;
57439;Laerm;43282;47.188;8.896;2023-06-14T11:33:57;54.57;45.57;64.54;;
57439;Laerm;43282;47.188;8.896;2023-06-14T11:36:22;57.74;43.29;74.27;;
57439;Laerm;43282;47.188;8.896;2023-06-14T11:38:48;58.02;43.49;73.02;;
57439;Laerm;43282;47.188;8.896;2023-06-14T11:41:13;54.11;43.04;64.44;;
57439;Laerm;43282;47.188;8.896;2023-06-14T11:43:39;58.57;43.44;73.52;;
57439;Laerm;43282;47.188;8.896;2023-06-14T11:46:11;58.17;42.47;74.19;;
57439;Laerm;43282;47.188;8.896;2023-06-14T11:48:41;60.35;44.39;77.84;;
57439;Laerm;43282;47.188;8.896;2023-06-14T11:51:07;58.40;44.80;73.30;;
57439;Laerm;43282;47.188;8.896;2023-06-14T11:53:32;58.44;45.77;74.81;;
57439;Laerm;43282;47.188;8.896;2023-06-14T11:55:58;55.22;43.81;67.18;;
57439;Laerm;43282;47.188;8.896;2023-06-14T11:58:23;53.88;44.90;62.77;;
57439;Laerm;43282;47.188;8.896;2023-06-14T12:00:50;55.51;45.20;73.03;;
57439;Laerm;43282;47.188;8.896;2023-06-14T12:03:15;54.49;44.15;68.35;;
57439;Laerm;43282;47.188;8.896;2023-06-14T12:05:41;57.39;44.87;72.60;;
57439;Laerm;43282;47.188;8.896;2023-06-14T12:08:06;55.90;42.65;72.57;;
57439;Laerm;43282;47.188;8.896;2023-06-14T12:10:39;53.21;43.09;64.56;;
57439;Laerm;43282;47.188;8.896;2023-06-14T12:13:04;55.46;44.58;65.66;;
57439;Laerm;43282;47.188;8.896;2023-06-14T12:15:31;57.54;44.62;74.78;;
57439;Laerm;43282;47.188;8.896;2023-06-14T12:17:57;55.88;44.11;69.20;;
57439;Laerm;43282;47.188;8.896;2023-06-14T12:20:22;57.25;44.76;71.19;;
57439;Laerm;43282;47.188;8.896;2023-06-14T12:22:52;56.63;44.07;76.85;;
57439;Laerm;43282;47.188;8.896;2023-06-14T12:25:34;58.14;44.76;74.31;;
57439;Laerm;43282;47.188;8.896;2023-06-14T12:28:07;66.56;43.81;81.53;;
57439;Laerm;43282;47.188;8.896;2023-06-14T12:30:33;56.71;42.98;71.90;;
57439;Laerm;43282;47.188;8.896;2023-06-14T12:32:58;52.86;43.63;69.21;;
57439;Laerm;43282;47.188;8.896;2023-06-14T12:35:24;55.70;42.65;71.10;;
57439;Laerm;43282;47.188;8.896;2023-06-14T12:37:49;61.09;43.90;76.48;;
57439;Laerm;43282;47.188;8.896;2023-06-14T12:40:14;56.13;43.94;71.47;;
57439;Laerm;43282;47.188;8.896;2023-06-14T12:42:40;55.94;43.63;69.38;;
57439;Laerm;43282;47.188;8.896;2023-06-14T12:45:05;57.66;43.44;74.02;;
57439;Laerm;43282;47.188;8.896;2023-06-14T12:47:30;57.79;42.65;73.14;;
57439;Laerm;43282;47.188;8.896;2023-06-14T12:49:56;58.32;43.04;75.79;;
57439;Laerm;43282;47.188;8.896;2023-06-14T12:52:21;61.91;45.91;79.32;;
57439;Laerm;43282;47.188;8.896;2023-06-14T12:54:46;50.04;43.44;60.53;;
57439;Laerm;43282;47.188;8.896;2023-06-14T12:57:12;53.14;44.39;66.05;;
57439;Laerm;43282;47.188;8.896;2023-06-14T12:59:37;52.14;43.29;67.09;;
57439;Laerm;43282;47.188;8.896;2023-06-14T13:02:12;67.23;46.20;86.28;;
57439;Laerm;43282;47.188;8.896;2023-06-14T13:04:37;58.02;44.08;74.72;;
57439;Laerm;43282;47.188;8.896;2023-06-14T13:07:03;61.27;43.77;79.52;;
57439;Laerm;43282;47.188;8.896;2023-06-14T13:09:29;57.33;43.24;72.83;;
57439;Laerm;43282;47.188;8.896;2023-06-14T13:11:54;62.10;42.35;80.05;;
57439;Laerm;43282;47.188;8.896;2023-06-14T13:14:19;53.36;42.65;65.33;;
57439;Laerm;43282;47.188;8.896;2023-06-14T13:16:45;59.37;44.23;79.22;;
57439;Laerm;43282;47.188;8.896;2023-06-14T13:19:10;56.56;44.69;72.79;;
57439;Laerm;43282;47.188;8.896;2023-06-14T13:21:35;57.75;44.11;76.96;;
57439;Laerm;43282;47.188;8.896;2023-06-14T13:24:00;54.48;44.39;63.94;;
57439;Laerm;43282;47.188;8.896;2023-06-14T13:26:26;54.56;44.97;69.27;;
57439;Laerm;43282;47.188;8.896;2023-06-14T13:28:51;51.83;43.72;68.76;;
57439;Laerm;43282;47.188;8.896;2023-06-14T13:31:17;55.83;44.27;70.65;;
57439;Laerm;43282;47.188;8.896;2023-06-14T13:33:42;54.21;43.90;65.64;;
57439;Laerm;43282;47.188;8.896;2023-06-14T13:36:07;56.29;44.54;70.40;;
57439;Laerm;43282;47.188;8.896;2023-06-14T13:38:33;52.07;44.31;64.79;;
57439;Laerm;43282;47.188;8.896;2023-06-14T13:40:58;53.97;43.58;66.52;;
57439;Laerm;43282;47.188;8.896;2023-06-14T13:43:23;56.71;43.19;70.13;;
57439;Laerm;43282;47.188;8.896;2023-06-14T13:45:48;53.95;44.58;66.24;;
57439;Laerm;43282;47.188;8.896;2023-06-14T13:48:14;59.83;43.90;77.92;;
57439;Laerm;43282;47.188;8.896;2023-06-14T13:50:39;56.65;43.99;71.33;;
57439;Laerm;43282;47.188;8.896;2023-06-14T13:53:05;55.79;44.03;71.84;;
57439;Laerm;43282;47.188;8.896;2023-06-14T13:55:30;59.40;44.03;77.47;;
57439;Laerm;43282;47.188;8.896;2023-06-14T13:57:55;65.88;43.58;80.85;;